.
WxDataArchive / Data Records for 2009-06-01
2009-05-31 June 2009 2009-06-02

Data Records for Monday, 01 June 2009

Time	Temp	Chill	HIndex	Humid	Dewpt	 Wind 	HiWind	WindDir	Rain 	Barom 
-----	----	-----	------	-----	-----	------	------	-------	-----	----- 
00:00	54.7	54.7	54.7	68	44.3	0	0	---	0.00	29.970 
00:05	54.7	54.7	54.7	70	45.1	0	0	---	0.00	29.970 
00:10	54.5	54.5	54.5	71	45.3	0	0	---	0.00	29.970 
00:15	54.4	54.4	54.4	72	45.6	0	0	---	0.00	29.970 
00:20	54.4	54.4	54.4	72	45.6	0	0	---	0.00	29.970 
00:25	54.4	54.4	54.4	72	45.6	0	0	---	0.00	29.970 
00:30	54.4	54.4	54.4	71	45.2	0	0	---	0.00	29.964 
00:35	54.4	54.4	54.4	72	45.6	0	0	---	0.00	29.964 
00:40	54.4	54.4	54.4	72	45.6	0	0	---	0.00	29.964 
00:45	54.4	54.4	54.4	72	45.6	0	0	---	0.00	29.966 
00:50	54.4	54.4	54.4	72	45.6	0	0	---	0.00	29.966 
00:55	54.2	54.2	54.2	72	45.4	0	0	---	0.00	29.966 
01:00	54.1	54.1	54.1	72	45.3	0	0	---	0.00	29.959 
01:05	53.9	53.9	53.9	72	45.1	0	0	---	0.00	29.959 
01:10	53.8	53.8	53.8	73	45.3	0	0	---	0.00	29.959 
01:15	53.5	53.5	53.5	73	45.1	0	0	---	0.00	29.957 
01:20	53.5	53.5	53.5	73	45.1	0	0	---	0.00	29.957 
01:25	53.3	53.3	53.3	73	44.9	0	0	---	0.00	29.957 
01:30	53.2	53.2	53.2	73	44.8	0	0	---	0.00	29.957 
01:35	53.1	53.1	53.1	73	44.7	0	0	---	0.00	29.957 
01:40	52.9	52.9	52.9	72	44.1	0	0	---	0.00	29.957 
01:45	52.8	52.8	52.8	72	44.0	0	0	---	0.00	29.956 
01:50	52.8	52.8	52.8	71	43.7	0	0	---	0.00	29.956 
01:55	52.6	52.6	52.6	71	43.5	0	0	---	0.00	29.956 
02:00	52.6	52.6	52.6	71	43.5	0	0	---	0.00	29.949 
02:05	52.5	52.5	52.5	70	43.0	0	0	---	0.00	29.949 
02:10	52.5	52.5	52.5	69	42.6	0	0	---	0.00	29.949 
02:15	52.3	52.3	52.3	68	42.1	0	0	---	0.00	29.941 
02:20	52.3	52.3	52.3	68	42.1	0	0	---	0.00	29.941 
02:25	52.3	52.3	52.3	69	42.4	0	0	---	0.00	29.941 
02:30	52.3	52.3	52.3	69	42.4	0	0	---	0.00	29.940 
02:35	52.3	52.3	52.3	69	42.4	0	0	---	0.00	29.940 
02:40	52.3	52.3	52.3	69	42.4	0	0	---	0.00	29.940 
02:45	52.5	52.5	52.5	67	41.9	0	0	---	0.00	29.932 
02:50	52.6	52.6	52.6	66	41.6	0	0	---	0.00	29.932 
02:55	52.9	52.9	52.9	65	41.5	0	0	---	0.00	29.932 
03:00	53.2	53.2	53.2	64	41.3	0	0	---	0.00	29.925 
03:05	53.5	53.5	53.5	62	40.8	0	1	22	0.00	29.925 
03:10	53.8	53.8	53.8	62	41.1	0	1	---	0.00	29.925 
03:15	54.1	54.1	54.1	60	40.5	0	0	---	0.00	29.925 
03:20	54.2	54.2	54.2	62	41.5	0	1	22	0.00	29.925 
03:25	54.4	54.4	54.4	62	41.7	0	0	---	0.00	29.925 
03:30	54.4	54.4	54.4	61	41.2	0	0	---	0.00	29.928 
03:35	54.2	54.2	54.2	62	41.5	0	0	---	0.00	29.928 
03:40	54.2	54.2	54.2	64	42.3	0	0	---	0.00	29.928 
03:45	54.4	54.4	54.4	64	42.5	0	0	---	0.00	29.941 
03:50	54.2	54.2	54.2	62	41.5	0	0	---	0.00	29.941 
03:55	54.4	54.4	54.4	65	42.9	0	0	---	0.00	29.941 
04:00	54.4	54.4	54.4	63	42.1	0	0	---	0.00	29.933 
04:05	54.5	54.5	54.5	62	41.7	0	0	---	0.00	29.933 
04:10	54.8	54.8	54.8	63	42.4	0	0	---	0.00	29.933 
04:15	55.0	55.0	55.0	62	42.2	0	0	---	0.00	29.934 
04:20	55.1	55.1	55.1	60	41.5	0	0	---	0.00	29.934 
04:25	55.1	55.1	55.1	61	41.9	0	0	---	0.00	29.934 
04:30	55.3	55.3	55.3	63	42.9	0	0	---	0.00	29.925 
04:35	55.4	55.4	55.4	62	42.6	0	1	22	0.00	29.925 
04:40	55.7	55.7	55.7	61	42.5	0	0	---	0.00	29.925 
04:45	55.9	55.9	55.9	61	42.6	0	0	---	0.00	29.931 
04:50	56.0	56.0	56.0	61	42.7	0	0	---	0.00	29.931 
04:55	56.0	56.0	56.0	61	42.7	0	0	---	0.00	29.931 
05:00	56.0	56.0	56.0	61	42.7	0	0	---	0.00	29.927 
05:05	55.7	55.7	55.7	61	42.5	0	0	---	0.00	29.927 
05:10	55.6	55.6	55.6	63	43.2	0	0	---	0.00	29.927 
05:15	55.4	55.4	55.4	64	43.4	0	0	---	0.00	29.922 
05:20	55.1	55.1	55.1	65	43.5	0	0	---	0.00	29.922 
05:25	54.8	54.8	54.8	65	43.3	0	0	---	0.00	29.922 
05:30	54.7	54.7	54.7	65	43.2	0	0	---	0.00	29.930 
05:35	54.4	54.4	54.4	65	42.9	0	0	---	0.00	29.930 
05:40	54.2	54.2	54.2	67	43.5	0	0	---	0.00	29.930 
05:45	54.1	54.1	54.1	68	43.8	0	0	---	0.00	29.920 
05:50	53.9	53.9	53.9	68	43.6	0	0	---	0.00	29.920 
05:55	53.8	53.8	53.8	69	43.9	0	0	---	0.00	29.920 
06:00	53.6	53.6	53.6	70	44.1	0	0	---	0.00	29.917 
06:05	53.5	53.5	53.5	71	44.3	0	0	---	0.00	29.917 
06:10	53.3	53.3	53.3	71	44.1	0	0	---	0.00	29.917 
06:15	53.3	53.3	53.3	71	44.1	0	0	---	0.00	29.922 
06:20	53.3	53.3	53.3	72	44.5	0	0	---	0.00	29.922 
06:25	53.5	53.5	53.5	73	45.1	0	0	---	0.00	29.922 
06:30	53.6	53.6	53.6	73	45.2	0	0	---	0.00	29.923 
06:35	53.8	53.8	53.8	72	45.0	0	0	---	0.00	29.923 
06:40	53.9	53.9	53.9	73	45.4	0	1	22	0.00	29.923 
06:45	54.4	54.4	54.4	72	45.6	0	1	22	0.00	29.918 
06:50	55.1	55.1	55.1	70	45.5	0	1	22	0.00	29.918 
06:55	55.6	55.6	55.6	69	45.6	0	1	22	0.00	29.918 
07:00	56.3	56.3	56.3	68	45.9	0	1	22	0.00	29.905 
07:05	56.6	56.6	56.6	69	46.5	0	0	---	0.00	29.905 
07:10	56.7	56.7	56.7	69	46.6	0	0	---	0.00	29.905 
07:15	56.9	56.9	56.9	68	46.4	0	1	22	0.00	29.919 
07:20	57.0	57.0	57.0	68	46.5	0	1	22	0.00	29.919 
07:25	57.2	57.2	57.2	68	46.7	0	0	---	0.00	29.919 
07:30	57.3	57.3	57.3	69	47.2	0	2	22	0.00	29.964 
07:35	57.5	57.5	57.5	69	47.4	1	3	22	0.00	29.964 
07:40	57.5	57.5	57.5	74	49.3	1	3	315	0.03	29.964 
07:45	56.5	56.5	56.5	80	50.4	0	2	270	0.07	30.022 
07:50	55.6	55.6	55.6	83	50.5	0	2	270	0.04	30.022 
07:55	55.0	55.0	55.0	86	50.9	0	1	270	0.01	30.022 
08:00	54.8	54.8	54.8	88	51.3	0	0	---	0.01	29.985 
08:05	54.7	54.7	54.7	89	51.5	0	1	270	0.01	29.985 
08:10	54.7	54.7	54.7	90	51.8	0	1	270	0.01	29.985 
08:15	54.7	54.7	54.7	91	52.1	0	2	270	0.00	30.005 
08:20	54.5	54.5	54.5	91	51.9	0	1	270	0.01	30.005 
08:25	54.7	54.7	54.7	92	52.4	0	1	270	0.00	30.005 
08:30	54.7	54.7	54.7	92	52.4	0	1	270	0.00	29.984 
08:35	54.5	54.5	54.5	92	52.2	0	1	270	0.01	29.984 
08:40	54.5	54.5	54.5	92	52.2	0	1	270	0.01	29.984 
08:45	54.7	54.7	54.7	93	52.7	0	2	270	0.00	29.987 
08:50	54.7	54.7	54.7	93	52.7	0	1	270	0.00	29.987 
08:55	54.5	54.5	54.5	93	52.5	0	1	270	0.00	29.987 
09:00	54.5	54.5	54.5	93	52.5	1	2	248	0.00	29.974 
09:05	54.5	54.5	54.5	93	52.5	1	2	180	0.00	29.974 
09:10	54.7	54.7	54.7	94	53.0	0	2	112	0.00	29.974 
09:15	54.8	54.8	54.8	94	53.1	0	2	112	0.00	29.970 
09:20	55.0	55.0	55.0	94	53.3	0	3	112	0.00	29.970 
09:25	55.1	55.1	55.1	94	53.4	0	1	112	0.00	29.970 
09:30	55.4	55.4	55.4	94	53.7	0	2	112	0.00	29.973 
09:35	55.6	55.6	55.6	94	53.9	1	2	112	0.00	29.973 
09:40	55.7	55.7	55.7	94	54.0	0	2	90	0.00	29.973 
09:45	56.0	56.0	56.0	94	54.3	0	1	90	0.00	29.973 
09:50	56.3	56.3	56.3	94	54.6	0	2	112	0.00	29.973 
09:55	56.5	56.5	56.5	94	54.8	1	3	135	0.00	29.973 
10:00	56.6	56.6	56.6	94	54.9	1	2	112	0.00	29.962 
10:05	56.9	56.9	56.9	94	55.2	1	6	90	0.00	29.962 
10:10	57.2	57.2	57.2	94	55.5	1	2	90	0.00	29.962 
10:15	57.6	57.6	57.6	94	55.9	1	2	90	0.00	29.955 
10:20	58.0	58.0	58.0	93	56.0	1	2	112	0.00	29.955 
10:25	58.4	58.4	58.4	93	56.4	1	3	90	0.00	29.955 
10:30	58.7	58.7	58.7	92	56.4	1	3	112	0.00	29.945 
10:35	58.9	58.9	58.9	91	56.3	1	4	112	0.00	29.945 
10:40	59.0	59.0	59.0	90	56.1	1	3	112	0.00	29.945 
10:45	59.5	59.5	59.5	91	56.9	0	1	112	0.00	29.938 
10:50	59.8	59.8	59.8	90	56.9	0	2	90	0.00	29.938 
10:55	60.1	60.1	60.1	90	57.2	0	2	248	0.00	29.938 
11:00	60.4	60.4	60.4	89	57.1	0	2	248	0.00	29.947 
11:05	60.7	60.7	60.7	88	57.1	1	3	68	0.00	29.947 
11:10	61.5	61.5	61.5	86	57.3	1	5	68	0.00	29.947 
11:15	61.8	61.8	61.8	85	57.2	1	4	112	0.00	29.934 
11:20	61.8	61.8	61.8	84	56.9	0	3	112	0.00	29.934 
11:25	61.8	61.8	61.8	84	56.9	1	2	112	0.00	29.934 
11:30	62.0	62.0	62.0	85	57.4	0	2	90	0.00	29.932 
11:35	62.0	62.0	62.0	85	57.4	0	2	45	0.00	29.932 
11:40	62.0	62.0	62.0	85	57.4	1	3	22	0.00	29.932 
11:45	62.1	62.1	62.1	84	57.2	1	3	45	0.00	29.930 
11:50	62.3	62.3	62.3	84	57.4	1	4	90	0.00	29.930 
11:55	62.3	62.3	62.3	83	57.1	1	3	90	0.00	29.930 
12:00	62.6	62.6	62.6	84	57.7	1	4	90	0.00	29.929 
12:05	63.2	63.2	63.2	84	58.3	1	3	68	0.00	29.929 
12:10	64.7	64.7	64.7	83	59.4	2	7	45	0.00	29.929 
12:15	66.0	66.0	66.0	79	59.3	2	6	90	0.00	29.925 
12:20	67.1	67.1	67.1	77	59.6	1	3	90	0.00	29.925 
12:25	67.3	67.3	67.3	76	59.5	2	5	68	0.00	29.925 
12:30	67.4	67.4	67.4	73	58.4	2	5	248	0.00	29.923 
12:35	67.4	67.4	67.4	73	58.4	1	6	248	0.00	29.923 
12:40	67.4	67.4	67.4	73	58.4	2	5	248	0.00	29.923 
12:45	67.4	67.4	67.4	71	57.7	2	6	270	0.00	29.924 
12:50	67.8	67.8	67.8	72	58.4	1	4	315	0.00	29.924 
12:55	67.9	67.9	67.9	71	58.1	1	4	248	0.00	29.924 
13:00	67.9	67.9	67.9	70	57.7	1	4	248	0.00	29.914 
13:05	67.9	67.9	67.9	72	58.5	0	3	248	0.00	29.914 
13:10	67.9	67.9	67.9	70	57.7	1	3	248	0.00	29.914 
13:15	68.1	68.1	68.1	69	57.5	1	3	248	0.01	29.910 
13:20	68.4	68.4	68.4	70	58.2	1	5	270	0.00	29.910 
13:25	68.8	68.8	68.8	70	58.6	1	3	270	0.00	29.910 
13:30	69.1	69.1	69.1	69	58.5	1	4	270	0.00	29.895 
13:35	69.4	69.4	69.4	69	58.8	1	4	270	0.00	29.895 
13:40	70.1	70.1	70.1	69	59.4	1	4	270	0.00	29.895 
13:45	70.6	70.6	70.6	68	59.5	2	4	292	0.00	29.891 
13:50	70.9	70.9	70.9	67	59.4	2	6	292	0.00	29.891 
13:55	70.9	70.9	70.9	67	59.4	2	5	248	0.00	29.891 
14:00	71.1	71.1	71.1	67	59.6	1	4	270	0.00	29.897 
14:05	71.3	71.3	71.3	68	60.2	0	4	270	0.00	29.897 
14:10	71.5	71.5	71.5	69	60.8	0	2	225	0.00	29.897 
14:15	71.3	71.3	71.3	70	61.0	0	4	225	0.00	29.899 
14:20	71.3	71.3	71.3	69	60.6	1	4	248	0.00	29.899 
14:25	71.3	71.3	71.3	70	61.0	0	3	248	0.00	29.899 
14:30	71.6	71.6	71.6	69	60.9	1	3	248	0.00	29.881 
14:35	71.6	71.6	71.6	70	61.3	0	2	90	0.00	29.881 
14:40	71.8	71.8	71.8	70	61.5	0	2	45	0.00	29.881 
14:45	72.5	72.5	72.5	71	62.5	0	1	0	0.00	29.885 
14:50	73.5	73.5	73.5	70	63.1	0	2	22	0.00	29.885 
14:55	74.9	74.9	74.9	68	63.6	1	3	0	0.00	29.885 
15:00	75.8	75.8	77.7	65	63.2	1	3	68	0.00	29.874 
15:05	76.3	76.3	78.1	65	63.6	1	4	248	0.00	29.874 
15:10	76.5	76.5	78.3	65	63.8	1	4	270	0.00	29.874 
15:15	77.2	77.2	79.0	65	64.5	1	3	270	0.00	29.883 
15:20	77.6	77.6	79.4	62	63.5	1	4	270	0.00	29.883 
15:25	78.6	78.6	80.4	62	64.5	1	5	270	0.00	29.883 
15:30	79.4	79.4	80.9	58	63.3	1	6	248	0.00	29.873 
15:35	79.8	79.8	81.1	55	62.2	2	5	270	0.00	29.873 
15:40	80.1	80.1	81.2	53	61.4	2	6	270	0.00	29.873 
15:45	80.1	80.1	81.3	54	61.9	2	5	270	0.00	29.865 
15:50	80.5	80.5	81.6	53	61.8	2	6	270	0.00	29.865 
15:55	80.5	80.5	81.6	53	61.8	2	6	270	0.00	29.865 
16:00	80.5	80.5	81.6	53	61.8	2	6	292	0.00	29.865 
16:05	80.7	80.7	81.7	52	61.4	1	4	248	0.00	29.865 
16:10	81.1	81.1	82.1	52	61.8	2	4	248	0.00	29.865 
16:15	81.6	81.6	82.8	53	62.8	1	4	248	0.00	29.860 
16:20	81.8	81.8	82.8	52	62.4	1	4	270	0.00	29.860 
16:25	82.0	82.0	82.8	50	61.5	1	5	248	0.00	29.860 
16:30	82.0	82.0	82.9	51	62.1	1	5	270	0.00	29.859 
16:35	82.4	82.4	83.7	53	63.5	1	3	270	0.00	29.859 
16:40	82.8	82.8	84.0	52	63.3	1	3	270	0.00	29.859 
16:45	82.8	82.8	83.7	50	62.2	2	5	270	0.00	29.861 
16:50	82.0	82.0	82.9	51	62.1	1	4	270	0.00	29.861 
16:55	81.6	81.6	82.3	50	61.1	2	5	270	0.00	29.861 
17:00	81.1	81.1	82.0	51	61.2	1	3	270	0.00	29.863 
17:05	80.5	80.5	81.6	53	61.8	1	4	270	0.00	29.863 
17:10	80.3	80.3	81.7	56	63.1	0	2	270	0.00	29.863 
17:15	80.5	80.5	81.8	55	62.8	0	1	270	0.00	29.862 
17:20	80.5	80.5	82.1	57	63.8	0	1	270	0.00	29.862 
17:25	80.3	80.3	81.7	56	63.1	0	2	270	0.00	29.862 
17:30	80.5	80.5	81.9	56	63.3	0	1	270	0.00	29.859 
17:35	80.5	80.5	81.8	55	62.8	0	1	270	0.00	29.859 
17:40	80.3	80.3	81.6	55	62.6	0	0	---	0.00	29.859 
17:45	80.3	80.3	81.8	57	63.7	0	0	---	0.00	29.856 
17:50	80.5	80.5	81.9	56	63.3	0	1	270	0.00	29.856 
17:55	80.9	80.9	82.5	57	64.2	0	1	270	0.00	29.856 
18:00	80.9	80.9	82.5	57	64.2	0	1	270	0.00	29.858 
18:05	80.5	80.5	82.1	57	63.8	0	1	270	0.00	29.858 
18:10	80.1	80.1	81.7	58	64.0	0	0	---	0.00	29.858 
18:15	79.9	79.9	81.6	59	64.3	0	0	---	0.00	29.851 
18:20	79.9	79.9	81.5	58	63.8	0	1	270	0.00	29.851 
18:25	79.9	79.9	81.4	57	63.3	0	1	270	0.00	29.851 
18:30	79.9	79.9	81.5	58	63.8	0	0	---	0.00	29.848 
18:35	79.8	79.8	81.4	58	63.7	0	1	270	0.00	29.848 
18:40	79.4	79.4	80.9	58	63.3	1	4	270	0.00	29.848 
18:45	78.1	78.1	79.6	56	61.1	2	5	270	0.00	29.854 
18:50	77.2	77.2	78.9	59	61.7	1	3	270	0.00	29.854 
18:55	76.5	76.5	78.4	61	62.0	0	1	225	0.00	29.854 
19:00	76.1	76.1	78.1	61	61.7	1	3	225	0.00	29.861 
19:05	75.6	75.6	77.7	61	61.2	1	4	292	0.00	29.861 
19:10	75.3	75.3	77.5	62	61.4	0	1	338	0.00	29.861 
19:15	75.1	75.1	77.3	62	61.2	0	1	338	0.00	29.863 
19:20	74.7	74.7	74.7	62	60.8	0	1	338	0.00	29.863 
19:25	74.6	74.6	74.6	63	61.2	0	1	338	0.00	29.863 
19:30	74.4	74.4	74.4	64	61.4	0	1	338	0.00	29.886 
19:35	74.2	74.2	74.2	65	61.7	0	1	338	0.00	29.886 
19:40	74.0	74.0	74.0	66	61.9	0	3	338	0.00	29.886 
19:45	73.9	73.9	73.9	68	62.7	2	7	270	0.00	29.893 
19:50	73.5	73.5	73.5	69	62.7	1	5	315	0.00	29.893 
19:55	73.0	73.0	73.0	70	62.6	1	4	0	0.00	29.893 
20:00	72.5	72.5	72.5	69	61.7	1	4	338	0.00	29.901 
20:05	72.0	72.0	72.0	67	60.4	1	7	292	0.00	29.901 
20:10	71.6	71.6	71.6	66	59.6	0	2	270	0.00	29.901 
20:15	71.3	71.3	71.3	67	59.8	1	5	68	0.00	29.902 
20:20	70.8	70.8	70.8	68	59.7	0	2	248	0.00	29.902 
20:25	70.4	70.4	70.4	69	59.7	0	1	248	0.00	29.902 
20:30	70.3	70.3	70.3	70	60.0	0	2	248	0.00	29.905 
20:35	70.1	70.1	70.1	71	60.2	0	1	248	0.00	29.905 
20:40	69.9	69.9	69.9	72	60.4	0	1	248	0.00	29.905 
20:45	69.9	69.9	69.9	72	60.4	0	1	248	0.00	29.911 
20:50	69.9	69.9	69.9	72	60.4	0	1	248	0.00	29.911 
20:55	70.1	70.1	70.1	72	60.6	0	0	---	0.00	29.911 
21:00	69.9	69.9	69.9	72	60.4	0	0	---	0.00	29.918 
21:05	69.9	69.9	69.9	73	60.8	0	0	---	0.00	29.918 
21:10	69.8	69.8	69.8	73	60.7	0	0	---	0.00	29.918 
21:15	69.8	69.8	69.8	74	61.1	0	0	---	0.00	29.914 
21:20	69.6	69.6	69.6	75	61.3	0	0	---	0.00	29.914 
21:25	69.4	69.4	69.4	75	61.1	0	1	248	0.00	29.914 
21:30	69.4	69.4	69.4	76	61.5	0	0	---	0.00	29.917 
21:35	69.4	69.4	69.4	76	61.5	0	1	248	0.00	29.917 
21:40	69.3	69.3	69.3	77	61.8	0	1	248	0.00	29.917 
21:45	69.1	69.1	69.1	77	61.6	0	1	248	0.00	29.913 
21:50	68.9	68.9	68.9	78	61.7	0	1	248	0.00	29.913 
21:55	68.8	68.8	68.8	78	61.7	0	1	248	0.00	29.913 
22:00	68.8	68.8	68.8	79	62.0	0	0	---	0.00	29.912 
22:05	68.6	68.6	68.6	79	61.8	0	0	---	0.00	29.912 
22:10	68.6	68.6	68.6	80	62.2	0	0	---	0.00	29.912 
22:15	68.4	68.4	68.4	80	62.0	0	0	---	0.00	29.918 
22:20	68.3	68.3	68.3	81	62.2	0	1	248	0.00	29.918 
22:25	68.3	68.3	68.3	82	62.6	0	2	248	0.00	29.918 
22:30	68.4	68.4	68.4	81	62.3	0	1	248	0.00	29.930 
22:35	68.6	68.6	68.6	81	62.5	0	1	248	0.00	29.930 
22:40	68.6	68.6	68.6	81	62.5	0	1	248	0.00	29.930 
22:45	68.6	68.6	68.6	81	62.5	0	1	248	0.00	29.934 
22:50	68.8	68.8	68.8	82	63.1	0	2	248	0.00	29.934 
22:55	68.8	68.8	68.8	82	63.1	0	2	248	0.00	29.934 
23:00	68.8	68.8	68.8	82	63.1	0	1	248	0.00	29.948 
23:05	68.9	68.9	68.9	81	62.8	0	1	248	0.00	29.948 
23:10	68.9	68.9	68.9	81	62.8	0	1	248	0.00	29.948 
23:15	68.9	68.9	68.9	81	62.8	0	1	248	0.00	29.948 
23:20	69.1	69.1	69.1	81	63.0	0	1	248	0.00	29.948 
23:25	69.1	69.1	69.1	80	62.7	0	1	248	0.00	29.948 
23:30	69.1	69.1	69.1	80	62.7	0	1	248	0.00	29.956 
23:35	69.3	69.3	69.3	80	62.9	0	2	248	0.00	29.956 
23:40	69.3	69.3	69.3	80	62.9	0	3	248	0.00	29.956 
23:45	69.3	69.3	69.3	81	63.2	1	3	248	0.00	29.960 
23:50	69.1	69.1	69.1	81	63.0	1	4	270	0.00	29.960 
23:55	69.1	69.1	69.1	81	63.0	1	4	225	0.00	29.960 

CoCoRaHS
IN-AL-39
A2 Web Hosting
Creative Commons License
GoDaddy
search engine by freefind advanced

loaded 2018-11-13 23:22:43 • last modified 2010-11-18 10:43:29
Privacy PolicyDisclaimer
• wx.awcolley.com is powered by PmWiki v.2002016 •
• all content (unless otherwise noted) © 2018 A W Colley